sensor_id;sensor_type;location;lat;lon;timestamp;pressure;altitude;pressure_sealevel;temperature;humidity
69171;BME280;56279;47.902;12.308;2023-02-26T00:01:58;94473.78;;;-0.83;94.91
69171;BME280;56279;47.902;12.308;2023-02-26T00:04:04;94469.84;;;-0.85;94.81
69171;BME280;56279;47.902;12.308;2023-02-26T00:06:06;94480.44;;;-0.87;94.91
69171;BME280;56279;47.902;12.308;2023-02-26T00:08:07;94470.97;;;-0.93;94.29
69171;BME280;56279;47.902;12.308;2023-02-26T00:10:11;94474.50;;;-0.99;94.57
69171;BME280;56279;47.902;12.308;2023-02-26T00:12:13;94475.16;;;-1.03;94.87
69171;BME280;56279;47.902;12.308;2023-02-26T00:14:15;94481.78;;;-1.07;94.52
69171;BME280;56279;47.902;12.308;2023-02-26T00:18:30;94483.25;;;-1.11;95.10
69171;BME280;56279;47.902;12.308;2023-02-26T00:20:32;94482.69;;;-1.13;94.65
69171;BME280;56279;47.902;12.308;2023-02-26T00:22:35;94481.69;;;-1.12;94.54
69171;BME280;56279;47.902;12.308;2023-02-26T00:24:37;94484.06;;;-1.11;94.46
69171;BME280;56279;47.902;12.308;2023-02-26T00:26:39;94486.41;;;-1.09;94.75
69171;BME280;56279;47.902;12.308;2023-02-26T00:28:40;94485.63;;;-1.10;94.31
69171;BME280;56279;47.902;12.308;2023-02-26T00:30:42;94492.38;;;-1.09;94.78
69171;BME280;56279;47.902;12.308;2023-02-26T00:32:43;94483.06;;;-1.10;94.50
69171;BME280;56279;47.902;12.308;2023-02-26T00:34:46;94493.63;;;-1.11;94.77
69171;BME280;56279;47.902;12.308;2023-02-26T00:39:38;94494.06;;;-1.14;94.72
69171;BME280;56279;47.902;12.308;2023-02-26T00:41:42;94503.53;;;-1.08;94.97
69171;BME280;56279;47.902;12.308;2023-02-26T00:43:44;94503.09;;;-1.05;94.93
69171;BME280;56279;47.902;12.308;2023-02-26T00:46:53;94505.19;;;-1.02;94.80
69171;BME280;56279;47.902;12.308;2023-02-26T00:51:10;94503.84;;;-1.05;94.99
69171;BME280;56279;47.902;12.308;2023-02-26T00:53:26;94510.63;;;-1.04;94.84
69171;BME280;56279;47.902;12.308;2023-02-26T00:55:29;94510.50;;;-0.97;94.55
69171;BME280;56279;47.902;12.308;2023-02-26T00:57:30;94519.50;;;-0.88;94.75
69171;BME280;56279;47.902;12.308;2023-02-26T00:59:32;94516.22;;;-0.84;94.78
69171;BME280;56279;47.902;12.308;2023-02-26T01:01:36;94518.13;;;-0.79;94.60
69171;BME280;56279;47.902;12.308;2023-02-26T01:03:39;94523.66;;;-0.76;94.64
69171;BME280;56279;47.902;12.308;2023-02-26T01:05:40;94526.03;;;-0.74;94.48
69171;BME280;56279;47.902;12.308;2023-02-26T01:10:21;94524.47;;;-0.75;94.51
69171;BME280;56279;47.902;12.308;2023-02-26T01:12:23;94528.84;;;-0.76;94.04
69171;BME280;56279;47.902;12.308;2023-02-26T01:14:24;94524.47;;;-0.75;94.02
69171;BME280;56279;47.902;12.308;2023-02-26T01:16:28;94532.25;;;-0.75;94.33
69171;BME280;56279;47.902;12.308;2023-02-26T01:18:53;94530.41;;;-0.75;93.89
69171;BME280;56279;47.902;12.308;2023-02-26T01:21:03;94533.78;;;-0.74;94.55
69171;BME280;56279;47.902;12.308;2023-02-26T01:23:13;94527.63;;;-0.73;94.53
69171;BME280;56279;47.902;12.308;2023-02-26T01:25:28;94532.78;;;-0.73;94.52
69171;BME280;56279;47.902;12.308;2023-02-26T01:27:30;94532.00;;;-0.74;94.06
69171;BME280;56279;47.902;12.308;2023-02-26T01:29:33;94528.63;;;-0.74;94.33
69171;BME280;56279;47.902;12.308;2023-02-26T01:33:44;94519.97;;;-0.68;94.37
69171;BME280;56279;47.902;12.308;2023-02-26T01:35:50;94530.31;;;-0.68;94.20
69171;BME280;56279;47.902;12.308;2023-02-26T01:38:04;94531.31;;;-0.69;94.02
69171;BME280;56279;47.902;12.308;2023-02-26T01:42:31;94533.47;;;-0.66;94.33
69171;BME280;56279;47.902;12.308;2023-02-26T01:44:41;94531.66;;;-0.65;94.19
69171;BME280;56279;47.902;12.308;2023-02-26T01:49:16;94536.50;;;-0.57;94.39
69171;BME280;56279;47.902;12.308;2023-02-26T01:51:36;94531.31;;;-0.57;94.31
69171;BME280;56279;47.902;12.308;2023-02-26T01:53:40;94540.09;;;-0.58;93.88
69171;BME280;56279;47.902;12.308;2023-02-26T01:55:43;94529.81;;;-0.53;94.48
69171;BME280;56279;47.902;12.308;2023-02-26T01:57:46;94527.59;;;-0.50;94.17
69171;BME280;56279;47.902;12.308;2023-02-26T01:59:50;94536.91;;;-0.49;93.99
69171;BME280;56279;47.902;12.308;2023-02-26T02:01:56;94532.66;;;-0.55;93.77
69171;BME280;56279;47.902;12.308;2023-02-26T02:03:59;94541.44;;;-0.56;94.16
69171;BME280;56279;47.902;12.308;2023-02-26T02:06:22;94538.84;;;-0.56;94.34
69171;BME280;56279;47.902;12.308;2023-02-26T02:08:25;94540.31;;;-0.60;94.00
69171;BME280;56279;47.902;12.308;2023-02-26T02:10:27;94532.53;;;-0.60;94.73
69171;BME280;56279;47.902;12.308;2023-02-26T02:12:43;94532.53;;;-0.60;94.60
69171;BME280;56279;47.902;12.308;2023-02-26T02:17:21;94550.81;;;-0.66;94.26
69171;BME280;56279;47.902;12.308;2023-02-26T02:27:26;94551.72;;;-0.73;94.36
69171;BME280;56279;47.902;12.308;2023-02-26T02:30:02;94545.38;;;-0.77;94.03
69171;BME280;56279;47.902;12.308;2023-02-26T02:32:14;94543.47;;;-0.81;94.16
69171;BME280;56279;47.902;12.308;2023-02-26T02:34:32;94550.94;;;-0.85;94.30
69171;BME280;56279;47.902;12.308;2023-02-26T02:36:42;94549.44;;;-0.92;94.05
69171;BME280;56279;47.902;12.308;2023-02-26T02:38:58;94550.56;;;-1.00;94.21
69171;BME280;56279;47.902;12.308;2023-02-26T02:41:22;94563.50;;;-1.00;94.20
69171;BME280;56279;47.902;12.308;2023-02-26T02:43:30;94557.22;;;-1.04;94.34
69171;BME280;56279;47.902;12.308;2023-02-26T02:45:40;94555.06;;;-1.07;94.76
69171;BME280;56279;47.902;12.308;2023-02-26T02:47:48;94561.28;;;-1.08;94.18
69171;BME280;56279;47.902;12.308;2023-02-26T02:52:13;94563.72;;;-1.13;94.00
69171;BME280;56279;47.902;12.308;2023-02-26T02:54:26;94558.31;;;-1.11;94.44
69171;BME280;56279;47.902;12.308;2023-02-26T02:56:36;94556.75;;;-1.12;94.16
69171;BME280;56279;47.902;12.308;2023-02-26T02:58:43;94559.34;;;-1.12;93.74
69171;BME280;56279;47.902;12.308;2023-02-26T03:00:51;94558.19;;;-1.16;94.15
69171;BME280;56279;47.902;12.308;2023-02-26T03:05:14;94561.13;;;-1.24;93.33
69171;BME280;56279;47.902;12.308;2023-02-26T03:07:16;94557.72;;;-1.36;93.12
69171;BME280;56279;47.902;12.308;2023-02-26T03:09:17;94566.03;;;-1.46;92.75
69171;BME280;56279;47.902;12.308;2023-02-26T03:11:19;94567.91;;;-1.53;93.35
69171;BME280;56279;47.902;12.308;2023-02-26T03:13:24;94576.91;;;-1.56;93.45
69171;BME280;56279;47.902;12.308;2023-02-26T03:17:49;94580.50;;;-1.57;93.42
69171;BME280;56279;47.902;12.308;2023-02-26T03:20:13;94577.25;;;-1.52;93.42
69171;BME280;56279;47.902;12.308;2023-02-26T03:27:04;94595.84;;;-1.44;92.45
69171;BME280;56279;47.902;12.308;2023-02-26T03:29:19;94593.69;;;-1.47;92.83
69171;BME280;56279;47.902;12.308;2023-02-26T03:31:40;94598.28;;;-1.49;92.66
69171;BME280;56279;47.902;12.308;2023-02-26T03:33:55;94600.22;;;-1.44;93.03
69171;BME280;56279;47.902;12.308;2023-02-26T03:36:27;94602.13;;;-1.40;92.64
69171;BME280;56279;47.902;12.308;2023-02-26T03:38:47;94600.56;;;-1.41;92.67
69171;BME280;56279;47.902;12.308;2023-02-26T03:40:55;94603.16;;;-1.41;92.56
69171;BME280;56279;47.902;12.308;2023-02-26T03:43:05;94592.81;;;-1.41;92.39
69171;BME280;56279;47.902;12.308;2023-02-26T03:45:27;94593.38;;;-1.38;92.38
69171;BME280;56279;47.902;12.308;2023-02-26T03:47:36;94592.34;;;-1.38;93.02
69171;BME280;56279;47.902;12.308;2023-02-26T03:51:46;94603.72;;;-1.38;92.46
69171;BME280;56279;47.902;12.308;2023-02-26T03:54:32;94598.66;;;-1.45;92.28
69171;BME280;56279;47.902;12.308;2023-02-26T03:56:58;94603.31;;;-1.54;92.26
69171;BME280;56279;47.902;12.308;2023-02-26T03:59:35;94610.63;;;-1.62;92.23
69171;BME280;56279;47.902;12.308;2023-02-26T04:01:55;94619.03;;;-1.67;92.19
69171;BME280;56279;47.902;12.308;2023-02-26T04:04:04;94623.41;;;-1.67;92.46
69171;BME280;56279;47.902;12.308;2023-02-26T04:06:07;94632.19;;;-1.68;92.54
69171;BME280;56279;47.902;12.308;2023-02-26T04:08:09;94639.16;;;-1.69;92.62
69171;BME280;56279;47.902;12.308;2023-02-26T04:10:15;94640.72;;;-1.68;92.39
69171;BME280;56279;47.902;12.308;2023-02-26T04:12:23;94648.03;;;-1.65;92.40
69171;BME280;56279;47.902;12.308;2023-02-26T04:14:26;94649.06;;;-1.66;91.99
69171;BME280;56279;47.902;12.308;2023-02-26T04:16:29;94652.44;;;-1.65;91.81
69171;BME280;56279;47.902;12.308;2023-02-26T04:18:32;94653.78;;;-1.63;91.86
69171;BME280;56279;47.902;12.308;2023-02-26T04:20:33;94662.69;;;-1.59;92.03
69171;BME280;56279;47.902;12.308;2023-02-26T04:22:35;94653.59;;;-1.61;91.81
69171;BME280;56279;47.902;12.308;2023-02-26T04:24:37;94659.41;;;-1.66;91.68
69171;BME280;56279;47.902;12.308;2023-02-26T04:26:38;94660.19;;;-1.65;91.55
69171;BME280;56279;47.902;12.308;2023-02-26T04:28:41;94656.38;;;-1.63;92.17
69171;BME280;56279;47.902;12.308;2023-02-26T04:30:42;94655.38;;;-1.62;91.70
69171;BME280;56279;47.902;12.308;2023-02-26T04:32:46;94650.41;;;-1.63;91.56
69171;BME280;56279;47.902;12.308;2023-02-26T04:34:49;94661.53;;;-1.63;91.49
69171;BME280;56279;47.902;12.308;2023-02-26T04:36:52;94659.97;;;-1.64;91.48
69171;BME280;56279;47.902;12.308;2023-02-26T04:38:54;94658.75;;;-1.61;91.52
69171;BME280;56279;47.902;12.308;2023-02-26T04:40:56;94667.28;;;-1.61;91.54
69171;BME280;56279;47.902;12.308;2023-02-26T04:42:58;94670.66;;;-1.60;91.64
69171;BME280;56279;47.902;12.308;2023-02-26T04:45:03;94670.66;;;-1.60;91.38
69171;BME280;56279;47.902;12.308;2023-02-26T04:47:10;94683.97;;;-1.57;91.59
69171;BME280;56279;47.902;12.308;2023-02-26T04:49:12;94682.94;;;-1.56;91.73
69171;BME280;56279;47.902;12.308;2023-02-26T04:51:17;94688.69;;;-1.54;91.88
69171;BME280;56279;47.902;12.308;2023-02-26T04:53:19;94693.22;;;-1.49;92.05
69171;BME280;56279;47.902;12.308;2023-02-26T04:55:20;94692.78;;;-1.46;91.75
69171;BME280;56279;47.902;12.308;2023-02-26T04:57:22;94693.16;;;-1.43;91.72
69171;BME280;56279;47.902;12.308;2023-02-26T04:59:25;94685.59;;;-1.44;91.72
69171;BME280;56279;47.902;12.308;2023-02-26T05:01:26;94686.38;;;-1.44;91.66
69171;BME280;56279;47.902;12.308;2023-02-26T05:03:28;94693.34;;;-1.44;91.63
69171;BME280;56279;47.902;12.308;2023-02-26T05:05:29;94683.66;;;-1.49;91.56
69171;BME280;56279;47.902;12.308;2023-02-26T05:07:30;94693.88;;;-1.54;91.39
69171;BME280;56279;47.902;12.308;2023-02-26T05:09:31;94690.72;;;-1.56;91.13
69171;BME280;56279;47.902;12.308;2023-02-26T05:11:33;94695.31;;;-1.58;91.11
69171;BME280;56279;47.902;12.308;2023-02-26T05:13:34;94700.16;;;-1.61;91.01
69171;BME280;56279;47.902;12.308;2023-02-26T05:15:36;94704.53;;;-1.62;91.17
69171;BME280;56279;47.902;12.308;2023-02-26T05:17:37;94708.47;;;-1.59;91.27
69171;BME280;56279;47.902;12.308;2023-02-26T05:19:38;94702.28;;;-1.58;91.26
69171;BME280;56279;47.902;12.308;2023-02-26T05:21:40;94710.84;;;-1.58;91.10
69171;BME280;56279;47.902;12.308;2023-02-26T05:23:41;94714.41;;;-1.59;91.06
69171;BME280;56279;47.902;12.308;2023-02-26T05:25:43;94717.44;;;-1.62;90.73
69171;BME280;56279;47.902;12.308;2023-02-26T05:27:44;94722.63;;;-1.62;91.13
69171;BME280;56279;47.902;12.308;2023-02-26T05:29:45;94724.00;;;-1.59;90.85
69171;BME280;56279;47.902;12.308;2023-02-26T05:31:48;94722.16;;;-1.59;90.85
69171;BME280;56279;47.902;12.308;2023-02-26T05:33:49;94720.19;;;-1.57;90.62
69171;BME280;56279;47.902;12.308;2023-02-26T05:35:51;94728.72;;;-1.56;90.38
69171;BME280;56279;47.902;12.308;2023-02-26T05:37:52;94721.19;;;-1.58;90.71
69171;BME280;56279;47.902;12.308;2023-02-26T05:39:54;94718.38;;;-1.56;90.61
69171;BME280;56279;47.902;12.308;2023-02-26T05:41:55;94723.75;;;-1.58;90.34
69171;BME280;56279;47.902;12.308;2023-02-26T05:43:56;94728.59;;;-1.61;90.56
69171;BME280;56279;47.902;12.308;2023-02-26T05:46:12;94735.19;;;-1.65;90.55
69171;BME280;56279;47.902;12.308;2023-02-26T05:48:13;94730.47;;;-1.68;90.79
69171;BME280;56279;47.902;12.308;2023-02-26T05:50:15;94735.63;;;-1.68;90.93
69171;BME280;56279;47.902;12.308;2023-02-26T05:52:16;94743.25;;;-1.73;90.66
69171;BME280;56279;47.902;12.308;2023-02-26T05:54:18;94742.72;;;-1.82;90.32
69171;BME280;56279;47.902;12.308;2023-02-26T05:56:19;94736.25;;;-1.91;90.48
69171;BME280;56279;47.902;12.308;2023-02-26T05:58:21;94744.28;;;-1.99;90.78
69171;BME280;56279;47.902;12.308;2023-02-26T06:00:22;94746.31;;;-2.01;90.29
69171;BME280;56279;47.902;12.308;2023-02-26T06:02:23;94745.13;;;-2.05;90.11
69171;BME280;56279;47.902;12.308;2023-02-26T06:04:24;94743.00;;;-2.08;90.13
69171;BME280;56279;47.902;12.308;2023-02-26T06:06:26;94743.41;;;-2.11;90.44
69171;BME280;56279;47.902;12.308;2023-02-26T06:08:27;94746.41;;;-2.14;90.08
69171;BME280;56279;47.902;12.308;2023-02-26T06:10:28;94751.59;;;-2.14;90.25
69171;BME280;56279;47.902;12.308;2023-02-26T06:12:30;94750.44;;;-2.18;90.06
69171;BME280;56279;47.902;12.308;2023-02-26T06:14:32;94760.75;;;-2.18;90.23
69171;BME280;56279;47.902;12.308;2023-02-26T06:16:33;94761.13;;;-2.15;90.02
69171;BME280;56279;47.902;12.308;2023-02-26T06:18:36;94764.31;;;-2.13;90.45
69171;BME280;56279;47.902;12.308;2023-02-26T06:20:43;94767.03;;;-2.08;90.02
69171;BME280;56279;47.902;12.308;2023-02-26T06:22:44;94763.03;;;-2.03;90.49
69171;BME280;56279;47.902;12.308;2023-02-26T06:24:46;94773.72;;;-2.00;89.94
69171;BME280;56279;47.902;12.308;2023-02-26T06:26:47;94780.41;;;-1.92;89.78
69171;BME280;56279;47.902;12.308;2023-02-26T06:29:00;94775.19;;;-1.86;89.97
69171;BME280;56279;47.902;12.308;2023-02-26T06:31:02;94785.53;;;-1.86;89.52
69171;BME280;56279;47.902;12.308;2023-02-26T06:33:04;94787.75;;;-1.89;89.50
69171;BME280;56279;47.902;12.308;2023-02-26T06:35:05;94788.97;;;-1.92;89.79
69171;BME280;56279;47.902;12.308;2023-02-26T06:37:07;94790.75;;;-1.92;89.41
69171;BME280;56279;47.902;12.308;2023-02-26T06:39:08;94794.56;;;-1.95;90.19
69171;BME280;56279;47.902;12.308;2023-02-26T06:41:10;94793.75;;;-1.95;90.13
69171;BME280;56279;47.902;12.308;2023-02-26T06:43:12;94806.69;;;-1.95;89.52
69171;BME280;56279;47.902;12.308;2023-02-26T06:45:13;94816.03;;;-1.94;89.85
69171;BME280;56279;47.902;12.308;2023-02-26T06:49:37;94822.59;;;-1.92;89.85
69171;BME280;56279;47.902;12.308;2023-02-26T06:51:38;94814.97;;;-1.87;90.05
69171;BME280;56279;47.902;12.308;2023-02-26T06:53:40;94809.38;;;-1.84;89.69
69171;BME280;56279;47.902;12.308;2023-02-26T06:55:43;94813.91;;;-1.79;89.63
69171;BME280;56279;47.902;12.308;2023-02-26T06:57:49;94815.50;;;-1.78;89.70
69171;BME280;56279;47.902;12.308;2023-02-26T06:59:54;94817.84;;;-1.77;89.64
69171;BME280;56279;47.902;12.308;2023-02-26T07:05:08;94835.59;;;-1.80;89.32
69171;BME280;56279;47.902;12.308;2023-02-26T07:07:10;94845.09;;;-1.74;89.20
69171;BME280;56279;47.902;12.308;2023-02-26T07:09:11;94844.44;;;-1.70;89.56
69171;BME280;56279;47.902;12.308;2023-02-26T07:11:13;94845.41;;;-1.64;89.57
69171;BME280;56279;47.902;12.308;2023-02-26T07:13:15;94845.75;;;-1.61;89.53
69171;BME280;56279;47.902;12.308;2023-02-26T07:15:17;94847.56;;;-1.61;88.95
69171;BME280;56279;47.902;12.308;2023-02-26T07:17:18;94855.34;;;-1.61;89.16
69171;BME280;56279;47.902;12.308;2023-02-26T07:19:20;94850.34;;;-1.63;89.03
69171;BME280;56279;47.902;12.308;2023-02-26T07:21:21;94867.25;;;-1.60;89.12
69171;BME280;56279;47.902;12.308;2023-02-26T07:23:23;94862.34;;;-1.68;88.79
69171;BME280;56279;47.902;12.308;2023-02-26T07:25:24;94869.97;;;-1.73;89.07
69171;BME280;56279;47.902;12.308;2023-02-26T07:27:25;94874.69;;;-1.70;89.19
69171;BME280;56279;47.902;12.308;2023-02-26T07:29:27;94877.66;;;-1.67;89.30
69171;BME280;56279;47.902;12.308;2023-02-26T07:31:28;94878.81;;;-1.63;89.54
69171;BME280;56279;47.902;12.308;2023-02-26T07:33:29;94875.72;;;-1.53;89.02
69171;BME280;56279;47.902;12.308;2023-02-26T07:35:31;94879.84;;;-1.46;88.93
69171;BME280;56279;47.902;12.308;2023-02-26T07:37:33;94871.44;;;-1.41;88.74
69171;BME280;56279;47.902;12.308;2023-02-26T07:39:34;94882.38;;;-1.39;88.27
69171;BME280;56279;47.902;12.308;2023-02-26T07:41:35;94877.84;;;-1.44;87.95
69171;BME280;56279;47.902;12.308;2023-02-26T07:43:36;94888.41;;;-1.45;88.29
69171;BME280;56279;47.902;12.308;2023-02-26T07:45:38;94889.78;;;-1.43;88.15
69171;BME280;56279;47.902;12.308;2023-02-26T07:47:39;94897.66;;;-1.38;88.33
69171;BME280;56279;47.902;12.308;2023-02-26T07:49:41;94893.22;;;-1.30;88.37
69171;BME280;56279;47.902;12.308;2023-02-26T07:51:42;94893.53;;;-1.20;87.95
69171;BME280;56279;47.902;12.308;2023-02-26T07:53:45;94892.66;;;-1.14;88.04
69171;BME280;56279;47.902;12.308;2023-02-26T07:55:47;94894.75;;;-1.05;87.83
69171;BME280;56279;47.902;12.308;2023-02-26T07:57:49;94899.28;;;-1.00;87.86
69171;BME280;56279;47.902;12.308;2023-02-26T07:59:51;94899.09;;;-0.99;87.32
69171;BME280;56279;47.902;12.308;2023-02-26T08:01:52;94895.28;;;-0.96;87.58
69171;BME280;56279;47.902;12.308;2023-02-26T08:03:53;94896.66;;;-0.94;87.32
69171;BME280;56279;47.902;12.308;2023-02-26T08:05:54;94906.78;;;-0.92;87.32
69171;BME280;56279;47.902;12.308;2023-02-26T08:07:57;94898.94;;;-0.86;87.51
69171;BME280;56279;47.902;12.308;2023-02-26T08:09:58;94906.28;;;-0.83;86.73
69171;BME280;56279;47.902;12.308;2023-02-26T08:11:59;94908.88;;;-0.83;86.76
69171;BME280;56279;47.902;12.308;2023-02-26T08:14:01;94914.31;;;-0.91;85.90
69171;BME280;56279;47.902;12.308;2023-02-26T08:16:03;94915.28;;;-0.85;86.40
69171;BME280;56279;47.902;12.308;2023-02-26T08:18:04;94917.59;;;-0.77;86.47
69171;BME280;56279;47.902;12.308;2023-02-26T08:20:07;94914.84;;;-0.64;86.23
69171;BME280;56279;47.902;12.308;2023-02-26T08:22:08;94921.66;;;-0.51;85.56
69171;BME280;56279;47.902;12.308;2023-02-26T08:24:11;94923.47;;;-0.52;85.70
69171;BME280;56279;47.902;12.308;2023-02-26T08:26:12;94919.94;;;-0.57;85.74
69171;BME280;56279;47.902;12.308;2023-02-26T08:28:14;94928.22;;;-0.67;85.52
69171;BME280;56279;47.902;12.308;2023-02-26T08:30:15;94936.13;;;-0.80;86.06
69171;BME280;56279;47.902;12.308;2023-02-26T08:32:17;94940.75;;;-0.82;85.98
69171;BME280;56279;47.902;12.308;2023-02-26T08:34:19;94944.63;;;-0.91;86.28
69171;BME280;56279;47.902;12.308;2023-02-26T08:36:22;94943.25;;;-0.94;86.27
69171;BME280;56279;47.902;12.308;2023-02-26T08:38:25;94947.06;;;-0.96;86.38
69171;BME280;56279;47.902;12.308;2023-02-26T08:40:27;94948.47;;;-1.00;86.06
69171;BME280;56279;47.902;12.308;2023-02-26T08:42:28;94958.72;;;-1.05;86.20
69171;BME280;56279;47.902;12.308;2023-02-26T08:44:30;94955.81;;;-1.15;86.00
69171;BME280;56279;47.902;12.308;2023-02-26T08:46:37;94956.44;;;-1.20;86.30
69171;BME280;56279;47.902;12.308;2023-02-26T08:48:38;94961.22;;;-1.17;86.40
69171;BME280;56279;47.902;12.308;2023-02-26T08:50:39;94963.94;;;-1.12;86.23
69171;BME280;56279;47.902;12.308;2023-02-26T08:52:40;94971.69;;;-1.12;85.97
69171;BME280;56279;47.902;12.308;2023-02-26T08:54:41;94968.13;;;-1.11;85.98
69171;BME280;56279;47.902;12.308;2023-02-26T08:56:43;94971.91;;;-1.13;86.17
69171;BME280;56279;47.902;12.308;2023-02-26T08:58:44;94978.88;;;-1.14;85.87
69171;BME280;56279;47.902;12.308;2023-02-26T09:00:46;94976.88;;;-1.12;86.03
69171;BME280;56279;47.902;12.308;2023-02-26T09:02:47;94971.06;;;-1.07;85.98
69171;BME280;56279;47.902;12.308;2023-02-26T09:04:48;94976.53;;;-0.97;85.41
69171;BME280;56279;47.902;12.308;2023-02-26T09:06:51;94975.25;;;-0.88;85.45
69171;BME280;56279;47.902;12.308;2023-02-26T09:08:53;94980.09;;;-0.74;84.72
69171;BME280;56279;47.902;12.308;2023-02-26T09:10:58;94980.53;;;-0.58;84.40
69171;BME280;56279;47.902;12.308;2023-02-26T09:13:00;94982.59;;;-0.49;84.55
69171;BME280;56279;47.902;12.308;2023-02-26T09:15:05;94979.59;;;-0.46;83.45
69171;BME280;56279;47.902;12.308;2023-02-26T09:17:07;94988.44;;;-0.53;84.21
69171;BME280;56279;47.902;12.308;2023-02-26T09:19:08;94993.28;;;-0.57;84.51
69171;BME280;56279;47.902;12.308;2023-02-26T09:21:10;94993.13;;;-0.62;84.50
69171;BME280;56279;47.902;12.308;2023-02-26T09:23:11;94994.00;;;-0.68;84.87
69171;BME280;56279;47.902;12.308;2023-02-26T09:25:13;95001.81;;;-0.75;85.25
69171;BME280;56279;47.902;12.308;2023-02-26T09:27:15;95003.56;;;-0.87;85.33
69171;BME280;56279;47.902;12.308;2023-02-26T09:29:16;95005.81;;;-0.97;85.07
69171;BME280;56279;47.902;12.308;2023-02-26T09:31:18;95004.28;;;-1.04;85.85
69171;BME280;56279;47.902;12.308;2023-02-26T09:33:20;95005.31;;;-1.05;85.89
69171;BME280;56279;47.902;12.308;2023-02-26T09:35:22;95014.59;;;-0.98;85.83
69171;BME280;56279;47.902;12.308;2023-02-26T09:37:23;95023.25;;;-0.86;85.47
69171;BME280;56279;47.902;12.308;2023-02-26T09:39:25;95024.94;;;-0.73;85.33
69171;BME280;56279;47.902;12.308;2023-02-26T09:41:34;95015.56;;;-0.56;84.79
69171;BME280;56279;47.902;12.308;2023-02-26T09:45:42;95022.34;;;-0.37;83.55
69171;BME280;56279;47.902;12.308;2023-02-26T09:47:47;95021.56;;;-0.19;83.72
69171;BME280;56279;47.902;12.308;2023-02-26T09:50:17;95024.53;;;0.14;83.21
69171;BME280;56279;47.902;12.308;2023-02-26T09:52:27;95027.81;;;0.39;82.39
69171;BME280;56279;47.902;12.308;2023-02-26T09:54:38;95017.59;;;0.56;81.23
69171;BME280;56279;47.902;12.308;2023-02-26T09:56:42;95017.94;;;0.71;81.75
69171;BME280;56279;47.902;12.308;2023-02-26T09:58:44;95021.25;;;0.90;81.14
69171;BME280;56279;47.902;12.308;2023-02-26T10:07:31;95029.50;;;1.10;78.67
69171;BME280;56279;47.902;12.308;2023-02-26T10:11:59;95043.13;;;0.82;79.56
69171;BME280;56279;47.902;12.308;2023-02-26T10:14:11;95040.41;;;0.77;79.29
69171;BME280;56279;47.902;12.308;2023-02-26T10:16:19;95040.75;;;0.69;79.41
69171;BME280;56279;47.902;12.308;2023-02-26T10:18:27;95039.38;;;0.66;80.07
69171;BME280;56279;47.902;12.308;2023-02-26T10:25:49;95032.88;;;0.46;79.91
69171;BME280;56279;47.902;12.308;2023-02-26T10:30:43;95032.84;;;0.34;80.27
69171;BME280;56279;47.902;12.308;2023-02-26T10:32:57;95033.81;;;0.22;80.39
69171;BME280;56279;47.902;12.308;2023-02-26T10:35:14;95037.38;;;0.09;80.57
69171;BME280;56279;47.902;12.308;2023-02-26T10:37:38;95032.47;;;0.01;81.46
69171;BME280;56279;47.902;12.308;2023-02-26T10:39:51;95035.72;;;-0.04;81.16
69171;BME280;56279;47.902;12.308;2023-02-26T10:41:59;95029.09;;;0.00;81.07
69171;BME280;56279;47.902;12.308;2023-02-26T10:44:43;95034.72;;;-0.03;81.34
69171;BME280;56279;47.902;12.308;2023-02-26T10:50:00;95025.72;;;0.00;81.18
69171;BME280;56279;47.902;12.308;2023-02-26T10:52:13;95023.19;;;0.12;81.12
69171;BME280;56279;47.902;12.308;2023-02-26T10:54:20;95025.72;;;0.30;80.48
69171;BME280;56279;47.902;12.308;2023-02-26T10:56:28;95022.38;;;0.41;81.02
69171;BME280;56279;47.902;12.308;2023-02-26T10:58:30;95021.50;;;0.58;80.69
69171;BME280;56279;47.902;12.308;2023-02-26T11:00:32;95008.34;;;0.72;79.92
69171;BME280;56279;47.902;12.308;2023-02-26T11:02:40;95011.75;;;0.84;79.95
69171;BME280;56279;47.902;12.308;2023-02-26T11:04:43;94999.66;;;0.89;79.47
69171;BME280;56279;47.902;12.308;2023-02-26T11:06:48;94995.28;;;0.90;79.43
69171;BME280;56279;47.902;12.308;2023-02-26T11:08:53;94993.72;;;0.89;80.06
69171;BME280;56279;47.902;12.308;2023-02-26T11:10:58;94995.50;;;0.88;79.50
69171;BME280;56279;47.902;12.308;2023-02-26T11:13:00;94998.44;;;0.92;80.12
69171;BME280;56279;47.902;12.308;2023-02-26T11:15:03;94995.63;;;0.93;79.75
69171;BME280;56279;47.902;12.308;2023-02-26T11:17:31;94986.47;;;0.91;80.22
69171;BME280;56279;47.902;12.308;2023-02-26T11:19:45;94988.84;;;0.92;79.82
69171;BME280;56279;47.902;12.308;2023-02-26T11:21:50;94985.91;;;1.00;79.29
69171;BME280;56279;47.902;12.308;2023-02-26T11:23:57;94989.06;;;1.14;78.46
69171;BME280;56279;47.902;12.308;2023-02-26T11:26:13;94994.47;;;1.35;78.71
69171;BME280;56279;47.902;12.308;2023-02-26T11:28:25;95001.50;;;1.47;77.58
69171;BME280;56279;47.902;12.308;2023-02-26T11:30:34;95010.16;;;1.52;77.87
69171;BME280;56279;47.902;12.308;2023-02-26T11:32:36;95017.28;;;1.57;77.99
69171;BME280;56279;47.902;12.308;2023-02-26T11:34:45;95025.19;;;1.62;78.02
69171;BME280;56279;47.902;12.308;2023-02-26T11:36:47;95027.59;;;1.63;77.62
69171;BME280;56279;47.902;12.308;2023-02-26T11:38:55;95031.97;;;1.74;77.89
69171;BME280;56279;47.902;12.308;2023-02-26T11:40:57;95039.31;;;1.89;77.93
69171;BME280;56279;47.902;12.308;2023-02-26T11:43:05;95039.28;;;2.00;77.15
69171;BME280;56279;47.902;12.308;2023-02-26T11:45:13;95045.13;;;2.07;78.00
69171;BME280;56279;47.902;12.308;2023-02-26T11:47:20;95043.97;;;2.15;77.59
69171;BME280;56279;47.902;12.308;2023-02-26T11:49:26;95043.72;;;2.28;76.92
69171;BME280;56279;47.902;12.308;2023-02-26T11:51:30;95042.06;;;2.39;76.76
69171;BME280;56279;47.902;12.308;2023-02-26T11:53:34;95049.19;;;2.43;76.58
69171;BME280;56279;47.902;12.308;2023-02-26T11:55:38;95053.94;;;2.46;76.75
69171;BME280;56279;47.902;12.308;2023-02-26T11:57:52;95042.16;;;2.44;76.93
69171;BME280;56279;47.902;12.308;2023-02-26T11:59:57;95041.91;;;2.29;75.96
69171;BME280;56279;47.902;12.308;2023-02-26T12:02:10;95046.34;;;2.17;76.72
69171;BME280;56279;47.902;12.308;2023-02-26T12:04:14;95043.84;;;2.22;77.15
69171;BME280;56279;47.902;12.308;2023-02-26T12:06:18;95040.03;;;2.41;77.03
69171;BME280;56279;47.902;12.308;2023-02-26T12:10:51;95041.53;;;2.82;75.06